createdAt,value
2023-05-22T00:02:10.149Z,18.00
2023-05-22T00:04:37.149Z,18.10
2023-05-22T00:07:04.273Z,18.00
2023-05-22T00:09:32.226Z,18.10
2023-05-22T00:11:59.280Z,18.10
2023-05-22T00:14:26.317Z,18.10
2023-05-22T00:16:53.757Z,18.10
2023-05-22T00:19:23.216Z,18.00
2023-05-22T00:21:51.513Z,18.00
2023-05-22T00:24:18.613Z,18.00
2023-05-22T00:26:46.604Z,17.90
2023-05-22T00:29:13.631Z,17.80
2023-05-22T00:31:40.865Z,17.60
2023-05-22T00:34:07.955Z,17.70
2023-05-22T00:36:37.135Z,17.60
2023-05-22T00:39:05.213Z,17.50
2023-05-22T00:41:36.404Z,17.40
2023-05-22T00:44:03.475Z,17.30
2023-05-22T00:46:31.464Z,17.20
2023-05-22T00:48:58.518Z,17.00
2023-05-22T00:51:27.054Z,17.00
2023-05-22T00:53:54.774Z,16.90
2023-05-22T00:56:22.690Z,16.90
2023-05-22T00:58:50.257Z,16.80
2023-05-22T01:01:17.990Z,16.80
2023-05-22T01:03:46.294Z,16.80
2023-05-22T01:06:18.692Z,16.70
2023-05-22T01:08:45.854Z,16.70
2023-05-22T01:11:25.511Z,16.60
2023-05-22T01:14:04.787Z,16.60
2023-05-22T01:16:37.438Z,16.50
2023-05-22T01:19:42.199Z,16.50
2023-05-22T01:22:50.158Z,16.50
2023-05-22T01:25:31.725Z,16.60
2023-05-22T01:28:19.024Z,16.60
2023-05-22T01:30:51.932Z,16.50
2023-05-22T01:33:21.737Z,16.30
2023-05-22T01:35:54.166Z,16.20
2023-05-22T01:38:22.082Z,16.10
2023-05-22T01:40:49.576Z,16.00
2023-05-22T01:43:17.901Z,15.90
2023-05-22T01:45:46.149Z,15.80
2023-05-22T01:48:13.208Z,15.70
2023-05-22T01:50:41.985Z,15.70
2023-05-22T01:53:45.455Z,15.60
2023-05-22T01:56:30.735Z,15.50
2023-05-22T01:59:07.805Z,15.60
2023-05-22T02:01:39.023Z,15.60
2023-05-22T02:04:07.136Z,15.50
2023-05-22T02:06:36.328Z,15.60
2023-05-22T02:09:03.565Z,15.60
2023-05-22T02:11:34.678Z,15.60
2023-05-22T02:14:02.347Z,15.60
2023-05-22T02:16:30.368Z,15.70
2023-05-22T02:19:07.912Z,15.70
2023-05-22T02:21:36.272Z,15.70
2023-05-22T02:24:03.689Z,15.80
2023-05-22T02:26:31.718Z,15.70
2023-05-22T02:28:59.904Z,15.70
2023-05-22T02:31:27.165Z,15.80
2023-05-22T02:33:54.594Z,15.80
2023-05-22T02:36:21.643Z,15.80
2023-05-22T02:38:48.731Z,15.70
2023-05-22T02:41:15.912Z,15.70
2023-05-22T02:43:43.726Z,15.80
2023-05-22T02:46:12.212Z,15.70
2023-05-22T02:48:39.669Z,15.60
2023-05-22T02:51:07.281Z,15.70
2023-05-22T02:53:40.384Z,15.70
2023-05-22T02:56:08.721Z,15.60
2023-05-22T02:58:36.010Z,15.50
2023-05-22T03:01:03.662Z,15.40
2023-05-22T03:03:32.161Z,15.40
2023-05-22T03:05:59.512Z,15.50
2023-05-22T03:08:28.364Z,15.50
2023-05-22T03:10:58.300Z,15.40
2023-05-22T03:13:25.762Z,15.30
2023-05-22T03:15:53.684Z,15.40
2023-05-22T03:18:21.941Z,15.50
2023-05-22T03:20:49.632Z,15.50
2023-05-22T03:23:16.930Z,15.30
2023-05-22T03:25:44.418Z,15.30
2023-05-22T03:28:11.459Z,15.20
2023-05-22T03:30:41.039Z,15.10
2023-05-22T03:33:14.011Z,15.20
2023-05-22T03:35:43.376Z,15.20
2023-05-22T03:38:11.660Z,15.20
2023-05-22T03:40:39.105Z,15.10
2023-05-22T03:43:06.753Z,15.00
2023-05-22T03:45:33.861Z,15.00
2023-05-22T03:48:02.082Z,14.80
2023-05-22T03:50:29.806Z,14.80
2023-05-22T03:52:56.959Z,14.90
2023-05-22T03:55:23.904Z,15.00
2023-05-22T03:57:51.519Z,15.00
2023-05-22T04:00:19.822Z,15.00
2023-05-22T04:02:47.082Z,15.00
2023-05-22T04:05:14.366Z,15.10
2023-05-22T04:07:41.494Z,15.20
2023-05-22T04:10:09.213Z,15.00
2023-05-22T04:12:36.388Z,14.90
2023-05-22T04:15:03.506Z,14.90
2023-05-22T04:17:34.253Z,15.00
2023-05-22T04:20:01.468Z,14.90
2023-05-22T04:22:31.050Z,15.00
2023-05-22T04:24:58.243Z,15.10
2023-05-22T04:27:26.471Z,15.00
2023-05-22T04:29:53.697Z,15.10
2023-05-22T04:32:22.074Z,15.20
2023-05-22T04:34:53.271Z,15.40
2023-05-22T04:37:20.687Z,15.30
2023-05-22T04:39:52.964Z,15.30
2023-05-22T04:42:20.636Z,15.50
2023-05-22T04:44:48.442Z,15.50
2023-05-22T04:47:15.486Z,15.40
2023-05-22T04:49:43.741Z,15.30
2023-05-22T04:52:11.750Z,15.30
2023-05-22T04:54:39.110Z,15.20
2023-05-22T04:57:07.621Z,15.20
2023-05-22T04:59:40.329Z,15.30
2023-05-22T05:02:08.727Z,15.70
2023-05-22T05:04:36.471Z,15.80
2023-05-22T05:07:05.144Z,15.80
2023-05-22T05:09:32.709Z,15.80
2023-05-22T05:12:03.340Z,15.80
2023-05-22T05:14:30.485Z,15.80
2023-05-22T05:16:58.764Z,15.60
2023-05-22T05:19:26.305Z,15.50
2023-05-22T05:21:53.369Z,15.50
2023-05-22T05:24:24.238Z,15.50
2023-05-22T05:26:52.618Z,15.50
2023-05-22T05:29:20.383Z,15.50
2023-05-22T05:31:57.379Z,15.50
2023-05-22T05:34:36.151Z,15.50
2023-05-22T05:37:05.387Z,15.50
2023-05-22T05:39:33.033Z,15.60
2023-05-22T05:42:02.810Z,15.70
2023-05-22T05:44:33.523Z,15.70
2023-05-22T05:47:02.208Z,15.90
2023-05-22T05:49:30.085Z,16.00
2023-05-22T05:51:58.061Z,16.00
2023-05-22T05:54:27.153Z,16.10
2023-05-22T05:56:57.332Z,16.00
2023-05-22T05:59:25.133Z,15.80
2023-05-22T06:02:10.705Z,15.90
2023-05-22T06:04:38.628Z,16.00
2023-05-22T06:07:08.780Z,16.10
2023-05-22T06:09:46.030Z,16.30
2023-05-22T06:12:17.020Z,16.30
2023-05-22T06:14:46.427Z,16.30
2023-05-22T06:17:15.582Z,16.20
2023-05-22T06:19:44.171Z,16.20
2023-05-22T06:22:11.453Z,16.30
2023-05-22T06:24:40.845Z,16.40
2023-05-22T06:27:13.562Z,16.40
2023-05-22T06:29:43.652Z,16.50
2023-05-22T06:32:12.637Z,16.30
2023-05-22T06:34:44.388Z,16.20
2023-05-22T06:37:12.841Z,16.10
2023-05-22T06:39:42.974Z,16.20
2023-05-22T06:42:13.930Z,16.30
2023-05-22T06:45:00.222Z,16.40
2023-05-22T06:47:37.116Z,16.30
2023-05-22T06:50:07.133Z,16.30
2023-05-22T06:52:34.841Z,16.30
2023-05-22T06:55:05.797Z,16.40
2023-05-22T06:57:44.256Z,16.40
2023-05-22T07:00:13.247Z,16.50
2023-05-22T07:03:18.487Z,16.40
2023-05-22T07:06:06.928Z,16.50
2023-05-22T07:08:35.191Z,16.60
2023-05-22T07:11:07.913Z,16.40
2023-05-22T07:13:37.179Z,16.70
2023-05-22T07:16:04.313Z,16.80
2023-05-22T07:18:32.784Z,16.80
2023-05-22T07:21:01.671Z,16.90
2023-05-22T07:23:30.470Z,16.60
2023-05-22T07:25:57.985Z,16.60
2023-05-22T07:28:31.321Z,16.80
2023-05-22T07:31:08.016Z,16.80
2023-05-22T07:33:35.369Z,16.60
2023-05-22T07:36:03.529Z,16.80
2023-05-22T07:38:31.044Z,16.80
2023-05-22T07:41:02.975Z,16.90
2023-05-22T07:43:31.706Z,17.00
2023-05-22T07:46:12.640Z,16.90
2023-05-22T07:48:50.453Z,16.80
2023-05-22T07:51:17.773Z,16.90
2023-05-22T07:53:48.124Z,16.80
2023-05-22T07:56:15.251Z,16.80
2023-05-22T07:58:42.388Z,16.80
2023-05-22T08:01:09.923Z,16.70
2023-05-22T08:03:37.299Z,16.70
2023-05-22T08:06:05.711Z,16.50
2023-05-22T08:08:34.000Z,16.50
2023-05-22T08:11:04.419Z,16.70
2023-05-22T08:13:33.199Z,16.90
2023-05-22T08:16:04.798Z,17.00
2023-05-22T08:18:31.819Z,17.10
2023-05-22T08:21:00.373Z,17.10
2023-05-22T08:23:27.464Z,17.20
2023-05-22T08:25:54.510Z,17.40
2023-05-22T08:28:21.677Z,17.40
2023-05-22T08:30:48.735Z,17.50
2023-05-22T08:33:17.035Z,17.40
2023-05-22T08:35:46.858Z,17.40
2023-05-22T08:38:15.124Z,17.50
2023-05-22T08:40:46.406Z,17.50
2023-05-22T08:43:13.737Z,17.60
2023-05-22T08:45:43.987Z,17.60
2023-05-22T08:48:14.333Z,17.70
2023-05-22T08:50:43.606Z,17.80
2023-05-22T08:53:13.610Z,18.00
2023-05-22T08:55:41.446Z,18.10
2023-05-22T08:58:10.954Z,18.10
2023-05-22T09:00:41.902Z,18.20
2023-05-22T09:03:13.990Z,18.10
2023-05-22T09:05:43.201Z,18.10
2023-05-22T09:08:19.767Z,18.30
2023-05-22T09:10:48.296Z,18.10
2023-05-22T09:13:30.251Z,18.10
2023-05-22T09:16:08.198Z,18.30
2023-05-22T09:18:37.466Z,18.30
2023-05-22T09:21:11.298Z,18.20
2023-05-22T09:23:42.469Z,18.20
2023-05-22T09:26:10.109Z,18.40
2023-05-22T09:28:38.223Z,18.60
2023-05-22T09:31:06.474Z,18.30
2023-05-22T09:33:34.718Z,18.40
2023-05-22T09:36:07.877Z,18.70
2023-05-22T09:38:35.028Z,19.00
2023-05-22T09:41:03.652Z,19.00
2023-05-22T09:43:31.329Z,19.00
2023-05-22T09:46:02.506Z,19.10
2023-05-22T09:48:33.790Z,19.10
2023-05-22T09:51:01.907Z,19.10
2023-05-22T09:53:30.092Z,19.10
2023-05-22T09:56:00.160Z,19.10
2023-05-22T09:58:31.465Z,19.10
2023-05-22T10:00:59.629Z,19.10
2023-05-22T10:03:27.516Z,19.10
2023-05-22T10:05:58.743Z,19.00
2023-05-22T10:08:29.486Z,19.20
2023-05-22T10:10:59.723Z,19.20
2023-05-22T10:13:28.061Z,19.30
2023-05-22T10:15:57.063Z,19.50
2023-05-22T10:18:25.865Z,19.60
2023-05-22T10:20:53.763Z,19.70
2023-05-22T10:23:22.909Z,19.40
2023-05-22T10:25:50.803Z,19.50
2023-05-22T10:28:27.687Z,19.70
2023-05-22T10:31:38.894Z,19.70
2023-05-22T10:34:47.848Z,20.00
2023-05-22T10:37:21.735Z,20.10
2023-05-22T10:40:05.304Z,20.30
2023-05-22T10:42:32.799Z,20.40
2023-05-22T10:45:04.569Z,20.60
2023-05-22T10:47:34.270Z,21.00
2023-05-22T10:50:09.836Z,21.00
2023-05-22T10:52:38.939Z,21.10
2023-05-22T10:55:10.525Z,21.20
2023-05-22T10:57:39.598Z,21.20
2023-05-22T11:00:15.957Z,21.20
2023-05-22T11:02:46.893Z,20.90
2023-05-22T11:05:25.501Z,20.70
2023-05-22T11:07:52.580Z,20.80
2023-05-22T11:10:52.913Z,21.20
2023-05-22T11:13:20.419Z,21.60
2023-05-22T11:15:48.514Z,21.70
2023-05-22T11:18:17.163Z,21.60
2023-05-22T11:20:45.055Z,21.70
2023-05-22T11:23:12.372Z,22.00
2023-05-22T11:25:41.449Z,22.10
2023-05-22T11:28:10.785Z,22.30
2023-05-22T11:30:38.975Z,22.60
2023-05-22T11:33:08.836Z,22.60
2023-05-22T11:35:36.304Z,22.40
2023-05-22T11:38:07.270Z,22.10
2023-05-22T11:40:34.651Z,22.50
2023-05-22T11:43:02.605Z,22.50
2023-05-22T11:45:29.633Z,22.70
2023-05-22T11:47:57.584Z,22.80
2023-05-22T11:50:40.095Z,22.90
2023-05-22T11:53:08.640Z,23.30
2023-05-22T11:55:35.890Z,23.30
2023-05-22T11:58:03.029Z,23.30
2023-05-22T12:00:31.962Z,23.20
2023-05-22T12:02:59.456Z,23.60
2023-05-22T12:05:26.671Z,23.80
2023-05-22T12:07:53.850Z,23.80
2023-05-22T12:10:22.416Z,24.00
2023-05-22T12:12:49.729Z,23.90
2023-05-22T12:15:21.155Z,23.80
2023-05-22T12:17:48.788Z,23.90
2023-05-22T12:24:56.038Z,23.80
2023-05-22T12:27:23.195Z,23.50
2023-05-22T12:46:38.583Z,23.90
2023-05-22T12:49:06.012Z,24.10
2023-05-22T12:51:33.061Z,24.30
2023-05-22T12:54:01.734Z,24.30
2023-05-22T12:56:30.474Z,24.40
2023-05-22T12:58:58.562Z,24.20
2023-05-22T13:01:26.339Z,24.40
2023-05-22T13:03:53.488Z,24.70
2023-05-22T13:06:21.034Z,24.70
2023-05-22T13:08:48.080Z,24.60
2023-05-22T13:11:15.104Z,24.80
2023-05-22T13:13:42.092Z,25.00
2023-05-22T13:16:10.682Z,25.20
2023-05-22T13:18:37.932Z,25.20
2023-05-22T13:21:05.096Z,25.10
2023-05-22T13:23:32.196Z,24.80
2023-05-22T13:26:01.986Z,25.10
2023-05-22T13:28:29.232Z,25.20
2023-05-22T13:30:56.655Z,25.50
2023-05-22T13:33:23.647Z,25.50
2023-05-22T13:35:50.681Z,25.90
2023-05-22T13:38:17.632Z,26.20
2023-05-22T13:40:46.185Z,26.20
2023-05-22T13:43:14.700Z,26.30
2023-05-22T13:45:42.018Z,26.60
2023-05-22T13:48:11.439Z,26.80
2023-05-22T13:50:38.502Z,27.00
2023-05-22T13:53:05.558Z,27.30
2023-05-22T13:55:32.550Z,28.20
2023-05-22T13:57:59.612Z,28.50
2023-05-22T14:00:27.051Z,28.30
2023-05-22T14:02:54.126Z,28.70
2023-05-22T14:05:23.866Z,29.00
2023-05-22T14:07:51.339Z,28.90
2023-05-22T14:10:18.498Z,29.10
2023-05-22T14:12:45.621Z,29.30
2023-05-22T14:15:16.103Z,29.00
2023-05-22T14:17:43.389Z,28.50
2023-05-22T14:20:11.054Z,28.70
2023-05-22T14:22:56.067Z,28.90
2023-05-22T14:25:25.811Z,29.00
2023-05-22T14:27:52.950Z,29.30
2023-05-22T14:30:20.122Z,30.00
2023-05-22T14:32:48.192Z,29.70
2023-05-22T14:35:16.852Z,29.50
2023-05-22T14:37:44.639Z,29.40
2023-05-22T14:40:14.316Z,29.50
2023-05-22T14:42:43.385Z,29.10
2023-05-22T14:45:10.804Z,28.30
2023-05-22T14:47:38.292Z,27.70
2023-05-22T14:50:18.248Z,27.70
2023-05-22T14:52:46.496Z,28.20
2023-05-22T14:55:13.562Z,28.20
2023-05-22T14:57:40.591Z,28.10
2023-05-22T15:00:12.256Z,28.00
2023-05-22T15:02:39.856Z,27.50
2023-05-22T15:05:07.430Z,27.90
2023-05-22T15:10:05.975Z,28.30
2023-05-22T15:12:33.419Z,28.30
2023-05-22T15:15:01.894Z,29.00
2023-05-22T15:17:29.926Z,29.30
2023-05-22T15:19:57.094Z,28.90
2023-05-22T15:22:24.096Z,28.80
2023-05-22T15:25:07.001Z,29.30
2023-05-22T15:27:35.675Z,29.30
2023-05-22T15:30:04.560Z,29.20
2023-05-22T15:32:36.369Z,28.70
2023-05-22T15:35:05.660Z,28.00
2023-05-22T15:37:34.010Z,27.50
2023-05-22T15:40:06.089Z,27.20
2023-05-22T15:42:35.454Z,26.90
2023-05-22T15:45:02.866Z,26.60
2023-05-22T15:47:31.344Z,26.20
2023-05-22T15:49:58.468Z,25.90
2023-05-22T15:52:26.869Z,25.70
2023-05-22T15:54:56.387Z,25.30
2023-05-22T15:57:24.246Z,25.10
2023-05-22T15:59:51.281Z,24.90
2023-05-22T16:02:19.043Z,24.40
2023-05-22T16:04:46.318Z,24.10
2023-05-22T16:07:13.396Z,23.90
2023-05-22T16:09:41.936Z,23.80
2023-05-22T16:12:11.649Z,23.60
2023-05-22T16:14:40.070Z,23.70
2023-05-22T16:17:07.899Z,23.90
2023-05-22T16:19:35.163Z,23.90
2023-05-22T16:22:03.808Z,24.00
2023-05-22T16:24:31.703Z,23.80
2023-05-22T16:27:00.003Z,23.70
2023-05-22T16:29:27.078Z,23.60
2023-05-22T16:31:54.307Z,23.30
2023-05-22T16:34:22.793Z,23.30
2023-05-22T16:36:49.834Z,23.00
2023-05-22T16:39:16.954Z,23.00
2023-05-22T16:41:44.141Z,22.80
2023-05-22T16:44:11.226Z,22.80
2023-05-22T16:46:42.480Z,22.80
2023-05-22T16:49:09.660Z,22.60
2023-05-22T16:51:36.932Z,22.30
2023-05-22T16:54:04.077Z,22.10
2023-05-22T16:56:34.189Z,22.20
2023-05-22T16:59:02.056Z,22.20
2023-05-22T17:01:29.439Z,22.30
2023-05-22T17:03:56.581Z,22.20
2023-05-22T17:06:23.686Z,22.20
2023-05-22T17:08:52.567Z,22.10
2023-05-22T17:11:19.680Z,21.80
2023-05-22T17:13:46.675Z,21.80
2023-05-22T17:16:13.849Z,21.90
2023-05-22T17:18:40.865Z,21.90
2023-05-22T17:21:09.389Z,21.90
2023-05-22T17:23:37.405Z,22.10
2023-05-22T17:26:04.874Z,22.70
2023-05-22T17:28:32.134Z,23.30
2023-05-22T17:30:59.301Z,23.90
2023-05-22T17:33:27.204Z,24.10
2023-05-22T17:35:54.346Z,24.10
2023-05-22T17:38:22.260Z,24.40
2023-05-22T17:40:49.526Z,24.30
2023-05-22T17:43:19.085Z,24.40
2023-05-22T17:45:53.257Z,24.20
2023-05-22T17:48:27.262Z,24.20
2023-05-22T17:50:54.526Z,23.60
2023-05-22T17:53:21.598Z,23.10
2023-05-22T17:55:51.062Z,22.80
2023-05-22T17:58:19.861Z,22.60
2023-05-22T18:00:48.845Z,22.20
2023-05-22T18:03:20.222Z,22.10
2023-05-22T18:05:48.863Z,21.90
2023-05-22T18:08:16.134Z,21.80
2023-05-22T18:10:43.563Z,21.70
2023-05-22T18:13:11.432Z,21.90
2023-05-22T18:15:38.558Z,21.90
2023-05-22T18:18:05.832Z,21.70
2023-05-22T18:20:37.763Z,21.60
2023-05-22T18:23:04.921Z,21.50
2023-05-22T18:25:31.966Z,21.50
2023-05-22T18:28:00.190Z,21.40
2023-05-22T18:30:27.198Z,21.40
2023-05-22T18:32:54.262Z,21.20
2023-05-22T18:35:21.464Z,21.00
2023-05-22T18:37:48.618Z,20.90
2023-05-22T18:40:16.137Z,20.80
2023-05-22T18:42:43.884Z,20.70
2023-05-22T18:45:14.381Z,20.40
2023-05-22T18:47:41.715Z,20.20
2023-05-22T18:50:09.255Z,20.10
2023-05-22T18:52:36.492Z,20.10
2023-05-22T18:55:05.075Z,20.00
2023-05-22T18:57:36.079Z,20.10
2023-05-22T19:00:03.724Z,20.00
2023-05-22T19:02:33.422Z,19.90
2023-05-22T19:05:00.575Z,19.90
2023-05-22T19:07:27.801Z,19.90
2023-05-22T19:09:54.772Z,20.00
2023-05-22T19:12:22.811Z,19.80
2023-05-22T19:14:57.675Z,19.70
2023-05-22T19:17:24.700Z,19.60
2023-05-22T19:19:51.776Z,19.70
2023-05-22T19:22:20.147Z,19.60
2023-05-22T19:24:48.367Z,19.50
2023-05-22T19:27:17.905Z,19.40
2023-05-22T19:29:44.976Z,19.40
2023-05-22T19:32:12.206Z,19.40
2023-05-22T19:34:39.525Z,19.30
2023-05-22T19:37:08.655Z,19.20
2023-05-22T19:39:35.747Z,19.20
2023-05-22T19:42:02.751Z,19.20
2023-05-22T19:44:29.797Z,19.20
2023-05-22T19:46:57.140Z,19.10
2023-05-22T19:49:24.175Z,19.00
2023-05-22T19:51:51.657Z,18.90
2023-05-22T19:54:19.578Z,18.90
2023-05-22T19:56:46.562Z,18.80
2023-05-22T19:59:14.895Z,18.70
2023-05-22T20:01:41.889Z,18.70
2023-05-22T20:04:10.117Z,18.60
2023-05-22T20:06:37.165Z,18.60
2023-05-22T20:09:05.857Z,18.50
2023-05-22T20:11:33.195Z,18.50
2023-05-22T20:14:02.631Z,18.60
2023-05-22T20:16:29.881Z,18.50
2023-05-22T20:18:57.996Z,18.40
2023-05-22T20:21:25.092Z,18.40
2023-05-22T20:23:52.993Z,18.30
2023-05-22T20:26:20.280Z,18.30
2023-05-22T20:28:47.346Z,18.20
2023-05-22T20:31:14.882Z,18.10
2023-05-22T20:33:41.946Z,18.10
2023-05-22T20:36:09.135Z,17.90
2023-05-22T20:38:37.202Z,17.80
2023-05-22T20:41:08.156Z,17.80
2023-05-22T20:43:39.405Z,17.60
2023-05-22T20:46:06.578Z,17.70
2023-05-22T20:48:33.585Z,17.60
2023-05-22T20:51:00.588Z,17.60
2023-05-22T20:53:27.902Z,17.50
2023-05-22T20:55:54.988Z,17.60
2023-05-22T20:58:23.245Z,17.70
2023-05-22T21:00:51.096Z,17.50
2023-05-22T21:03:18.177Z,17.40
2023-05-22T21:05:45.267Z,17.30
2023-05-22T21:08:12.227Z,17.20
2023-05-22T21:10:39.404Z,17.20
2023-05-22T21:13:08.037Z,17.20
2023-05-22T21:15:35.077Z,17.10
2023-05-22T21:18:02.197Z,17.00
2023-05-22T21:20:30.508Z,17.10
2023-05-22T21:22:57.588Z,17.10
2023-05-22T21:25:25.442Z,17.00
2023-05-22T21:27:54.548Z,17.00
2023-05-22T21:30:23.479Z,17.00
2023-05-22T21:32:50.612Z,16.90
2023-05-22T21:35:17.674Z,16.80
2023-05-22T21:37:46.293Z,16.80
2023-05-22T21:40:13.496Z,16.70
2023-05-22T21:42:46.292Z,16.70
2023-05-22T21:45:14.515Z,16.70
2023-05-22T21:47:41.863Z,16.60
2023-05-22T21:50:09.302Z,16.50
2023-05-22T21:52:36.510Z,16.50
2023-05-22T21:55:04.136Z,16.40
2023-05-22T21:57:31.269Z,16.50
2023-05-22T21:59:58.237Z,16.40
2023-05-22T22:02:25.301Z,16.30
2023-05-22T22:04:52.351Z,16.20
2023-05-22T22:07:19.309Z,16.20
2023-05-22T22:09:46.367Z,16.20
2023-05-22T22:12:13.347Z,16.10
2023-05-22T22:14:40.427Z,16.00
2023-05-22T22:17:08.320Z,16.00
2023-05-22T22:19:36.175Z,16.10
2023-05-22T22:22:03.482Z,16.10
2023-05-22T22:24:30.494Z,16.10
2023-05-22T22:26:58.812Z,16.00
2023-05-22T22:29:26.532Z,15.90
2023-05-22T22:31:56.558Z,15.90
2023-05-22T22:34:23.596Z,15.90
2023-05-22T22:36:50.890Z,15.80
2023-05-22T22:39:17.890Z,15.90
2023-05-22T22:41:45.887Z,15.90
2023-05-22T22:44:12.953Z,16.00
2023-05-22T22:46:40.383Z,15.90
2023-05-22T22:49:08.815Z,16.00
2023-05-22T22:51:36.786Z,16.10
2023-05-22T22:54:03.963Z,16.10
2023-05-22T22:56:31.340Z,16.00
2023-05-22T22:58:58.407Z,16.00
2023-05-22T23:01:26.915Z,16.00
2023-05-22T23:03:55.774Z,16.10
2023-05-22T23:06:24.884Z,16.20
2023-05-22T23:08:53.331Z,16.20
2023-05-22T23:11:20.352Z,16.20
2023-05-22T23:18:16.437Z,15.90
2023-05-22T23:20:43.614Z,15.90
2023-05-22T23:23:10.660Z,15.80
2023-05-22T23:25:38.097Z,15.80
2023-05-22T23:28:08.416Z,15.80
2023-05-22T23:30:35.527Z,15.90
2023-05-22T23:33:06.375Z,15.90
2023-05-22T23:35:34.589Z,15.90
2023-05-22T23:38:02.835Z,15.90
2023-05-22T23:40:29.887Z,15.80
2023-05-22T23:42:58.000Z,15.90
2023-05-22T23:45:24.994Z,15.80
2023-05-22T23:47:52.372Z,15.80
2023-05-22T23:50:19.798Z,15.80
2023-05-22T23:52:48.259Z,15.90
2023-05-22T23:55:15.740Z,15.70
2023-05-22T23:57:42.950Z,15.70
